Time;durP1;ratioP1;P1;durP2;ratioP2;P2;SDS_P1;SDS_P2;PMS_P1;PMS_P2;Temp;Humidity;BMP_temperature;BMP_pressure;BME280_temperature;BME280_humidity;BME280_pressure;Samples;Min_cycle;Max_cycle;Signal;HPM_P1;HPM_P2
2023/11/05 00:01:59;;;;;;;1.33;0.80;;;11.00;94.90;;;;;;5028773;28;20033;-93
2023/11/05 00:04:28;;;;;;;1.67;0.82;;;11.00;93.80;;;;;;5023464;28;20073;-93
2023/11/05 00:06:54;;;;;;;2.20;1.13;;;11.00;94.40;;;;;;5021573;28;20037;-93
2023/11/05 00:09:19;;;;;;;2.08;0.93;;;11.00;94.10;;;;;;5034837;28;20028;-93
2023/11/05 00:11:48;;;;;;;2.05;0.85;;;11.00;93.50;;;;;;5041193;28;20025;-93
2023/11/05 00:14:16;;;;;;;1.85;1.42;;;11.00;92.80;;;;;;5022374;28;20419;-92
2023/11/05 00:16:45;;;;;;;1.38;1.00;;;11.10;91.30;;;;;;5040520;28;20089;-94
2023/11/05 00:19:11;;;;;;;1.17;0.88;;;11.20;89.70;;;;;;5031845;28;20022;-93
2023/11/05 00:21:46;;;;;;;0.65;0.65;;;11.20;90.30;;;;;;5015190;28;20041;-92
2023/11/05 00:24:11;;;;;;;1.38;1.20;;;11.20;89.70;;;;;;5015948;28;20029;-93
2023/11/05 00:26:37;;;;;;;3.35;1.05;;;11.20;88.50;;;;;;5036366;28;20099;-92
2023/11/05 00:29:03;;;;;;;1.60;1.10;;;11.20;89.70;;;;;;5039337;28;20025;-92
2023/11/05 00:31:28;;;;;;;2.45;1.40;;;11.20;91.00;;;;;;5039282;28;20163;-92
2023/11/05 00:33:54;;;;;;;1.63;1.05;;;11.10;89.00;;;;;;5023640;28;20022;-93
2023/11/05 00:36:25;;;;;;;4.07;0.93;;;11.30;88.80;;;;;;5031202;28;20041;-94
2023/11/05 00:38:55;;;;;;;2.88;1.23;;;11.30;88.80;;;;;;5036354;28;20043;-92
2023/11/05 00:41:41;;;;;;;2.50;0.80;;;11.30;88.90;;;;;;5020980;28;20552;-92
2023/11/05 00:44:10;;;;;;;3.10;0.80;;;11.30;88.40;;;;;;5037126;28;20125;-92
2023/11/05 00:46:38;;;;;;;3.38;0.85;;;11.30;87.60;;;;;;5038591;28;20021;-93
2023/11/05 00:49:04;;;;;;;1.67;1.10;;;11.50;86.40;;;;;;5017408;28;20116;-92
2023/11/05 00:51:32;;;;;;;1.83;1.20;;;11.50;85.10;;;;;;5017787;28;20068;-92
2023/11/05 00:53:58;;;;;;;2.35;0.90;;;11.60;84.80;;;;;;5008878;28;20025;-92
2023/11/05 00:56:24;;;;;;;1.95;0.80;;;11.70;85.00;;;;;;5017307;28;20022;-92
2023/11/05 00:58:53;;;;;;;2.72;0.93;;;11.70;85.00;;;;;;5012905;28;20014;-93
2023/11/05 01:01:21;;;;;;;1.70;0.98;;;11.70;82.20;;;;;;5035436;28;20029;-92
2023/11/05 01:03:46;;;;;;;2.72;0.95;;;11.90;82.00;;;;;;5024583;28;20028;-93
2023/11/05 01:06:15;;;;;;;2.03;0.68;;;12.00;82.10;;;;;;5032175;28;20496;-92
2023/11/05 01:08:47;;;;;;;4.47;0.98;;;12.00;81.20;;;;;;5034931;28;20055;-92
2023/11/05 01:11:13;;;;;;;1.23;0.90;;;12.10;80.40;;;;;;5031703;28;20033;-92
2023/11/05 01:13:41;;;;;;;2.15;0.65;;;12.20;79.40;;;;;;5031498;28;20116;-92
2023/11/05 01:16:18;;;;;;;1.50;0.82;;;12.40;76.10;;;;;;5034048;28;20033;-91
2023/11/05 01:18:46;;;;;;;1.95;0.90;;;12.40;76.40;;;;;;5042482;28;20018;-93
2023/11/05 01:21:12;;;;;;;3.10;1.10;;;12.40;77.20;;;;;;5024641;28;20036;-92
2023/11/05 01:23:38;;;;;;;2.70;1.00;;;12.40;76.70;;;;;;5024733;28;20030;-92
2023/11/05 01:26:07;;;;;;;2.13;0.70;;;12.50;76.20;;;;;;5034589;28;20034;-92
2023/11/05 01:28:33;;;;;;;1.73;0.88;;;12.50;76.20;;;;;;5014396;28;20033;-92
2023/11/05 01:30:58;;;;;;;3.70;0.85;;;12.60;75.80;;;;;;5041457;28;20662;-92
2023/11/05 01:33:24;;;;;;;4.25;0.77;;;12.60;76.00;;;;;;5041244;28;20041;-92
2023/11/05 01:35:49;;;;;;;4.03;1.23;;;12.60;75.40;;;;;;5040195;28;20101;-92
2023/11/05 01:38:18;;;;;;;2.78;0.70;;;12.50;76.70;;;;;;5040621;28;20105;-92
2023/11/05 01:40:47;;;;;;;4.40;1.17;;;12.50;75.50;;;;;;5034516;28;20064;-91
2023/11/05 01:43:16;;;;;;;1.88;1.35;;;12.50;75.40;;;;;;5015100;28;20040;-90
2023/11/05 01:45:42;;;;;;;2.05;0.98;;;12.50;75.40;;;;;;5039214;28;20037;-91
2023/11/05 01:48:26;;;;;;;4.60;0.90;;;12.60;74.10;;;;;;5022965;28;20491;-91
2023/11/05 01:50:55;;;;;;;2.40;0.95;;;12.70;74.10;;;;;;5025984;28;20029;-92
2023/11/05 01:53:25;;;;;;;4.43;1.73;;;12.60;77.40;;;;;;5029372;28;20030;-91
2023/11/05 01:56:01;;;;;;;8.98;1.88;;;12.50;78.10;;;;;;5040793;28;20045;-92
2023/11/05 01:58:46;;;;;;;1.48;0.82;;;12.40;78.40;;;;;;5033551;28;20026;-91
2023/11/05 02:01:27;;;;;;;0.82;0.77;;;12.40;79.20;;;;;;4944816;29;20095;-89
2023/11/05 02:03:55;;;;;;;2.50;0.85;;;12.40;79.60;;;;;;5016361;28;20034;-92
2023/11/05 02:06:21;;;;;;;2.90;1.13;;;12.30;80.00;;;;;;5034422;28;20102;-92
2023/11/05 02:08:47;;;;;;;2.25;1.15;;;12.20;80.50;;;;;;5029388;28;20033;-92
2023/11/05 02:11:13;;;;;;;3.50;0.80;;;12.20;82.70;;;;;;5026908;28;20021;-91
2023/11/05 02:13:56;;;;;;;4.10;0.88;;;12.20;84.20;;;;;;5043309;28;20034;-94
2023/11/05 02:16:24;;;;;;;4.13;0.80;;;12.10;84.40;;;;;;5043748;28;20014;-92
2023/11/05 02:18:56;;;;;;;2.63;1.10;;;12.10;83.00;;;;;;5032247;28;20018;-93
2023/11/05 02:21:27;;;;;;;2.88;1.48;;;12.00;85.00;;;;;;5022854;28;20030;-94
2023/11/05 02:23:52;;;;;;;2.00;0.73;;;11.90;83.60;;;;;;5008427;28;20029;-93
2023/11/05 02:26:18;;;;;;;2.03;0.90;;;11.90;83.80;;;;;;5034321;28;20038;-93
2023/11/05 02:28:44;;;;;;;3.50;1.42;;;11.90;84.00;;;;;;5022531;28;20109;-92
2023/11/05 02:31:09;;;;;;;4.45;0.90;;;11.90;84.10;;;;;;5041354;28;20537;-93
2023/11/05 02:33:45;;;;;;;3.28;1.27;;;11.90;85.10;;;;;;5040727;28;20021;-92
2023/11/05 02:36:11;;;;;;;3.75;1.35;;;11.90;86.60;;;;;;5023924;28;20026;-94
2023/11/05 02:38:40;;;;;;;4.70;0.93;;;11.80;85.20;;;;;;5040745;28;20037;-96
2023/11/05 02:41:11;;;;;;;4.32;1.10;;;11.80;81.90;;;;;;5024914;28;20484;-94
2023/11/05 02:43:39;;;;;;;4.07;0.82;;;11.90;83.90;;;;;;5028592;28;20064;-93
2023/11/05 02:46:06;;;;;;;3.65;1.00;;;12.00;83.00;;;;;;5008024;28;20065;-93
2023/11/05 02:48:32;;;;;;;3.78;1.05;;;11.90;81.20;;;;;;5027166;28;20081;-93
2023/11/05 02:51:04;;;;;;;7.63;1.30;;;12.10;81.50;;;;;;5030357;28;20484;-93
2023/11/05 02:53:30;;;;;;;1.77;1.02;;;12.20;78.60;;;;;;5022728;28;20026;-93
2023/11/05 02:55:56;;;;;;;2.20;0.82;;;12.30;76.70;;;;;;5021856;28;20160;-92
2023/11/05 02:58:22;;;;;;;3.08;0.55;;;12.50;75.60;;;;;;5034998;28;20036;-94
2023/11/05 03:00:48;;;;;;;3.22;2.03;;;12.60;74.40;;;;;;5024059;28;20018;-92
2023/11/05 03:03:21;;;;;;;4.53;0.93;;;12.60;73.50;;;;;;5041063;28;20025;-93
2023/11/05 03:05:46;;;;;;;4.80;0.85;;;12.70;73.70;;;;;;5023078;28;20029;-93
2023/11/05 03:08:14;;;;;;;4.53;0.50;;;12.90;71.80;;;;;;5038989;28;20030;-92
2023/11/05 03:10:40;;;;;;;1.67;1.00;;;12.90;72.20;;;;;;5032768;28;20025;-92
2023/11/05 03:13:09;;;;;;;4.70;0.65;;;12.90;72.00;;;;;;5021295;28;20488;-92
2023/11/05 03:15:38;;;;;;;1.75;0.88;;;13.00;71.00;;;;;;5036349;28;20030;-92
2023/11/05 03:18:04;;;;;;;2.17;0.80;;;13.00;72.10;;;;;;5023056;28;20103;-92
2023/11/05 03:20:30;;;;;;;3.95;1.02;;;13.20;69.40;;;;;;5024521;28;20037;-92
2023/11/05 03:23:02;;;;;;;6.00;1.38;;;13.10;70.20;;;;;;5039033;28;20021;-92
2023/11/05 03:25:30;;;;;;;2.45;0.73;;;13.10;69.80;;;;;;5040055;28;20044;-93
2023/11/05 03:27:56;;;;;;;4.60;1.30;;;13.10;71.10;;;;;;5020415;28;20026;-92
2023/11/05 03:30:22;;;;;;;1.30;0.52;;;13.10;70.30;;;;;;5022960;28;20030;-92
2023/11/05 03:32:53;;;;;;;1.95;0.85;;;13.20;69.10;;;;;;5022017;28;20022;-92
2023/11/05 03:35:31;;;;;;;8.18;1.52;;;13.20;69.50;;;;;;5017197;28;20037;-92
2023/11/05 03:38:02;;;;;;;5.05;1.13;;;13.20;69.60;;;;;;5022041;28;20033;-93
2023/11/05 03:40:28;;;;;;;3.20;0.82;;;13.40;67.50;;;;;;5038166;28;20495;-92
2023/11/05 03:42:54;;;;;;;2.22;0.90;;;13.40;67.00;;;;;;5024080;28;20036;-92
2023/11/05 03:45:22;;;;;;;3.13;0.80;;;13.30;67.70;;;;;;5019422;28;20113;-92
2023/11/05 03:47:47;;;;;;;1.45;0.70;;;13.40;67.00;;;;;;5030183;28;20028;-91
2023/11/05 03:50:16;;;;;;;3.13;1.02;;;13.40;66.20;;;;;;5027670;28;20030;-93
2023/11/05 03:52:51;;;;;;;2.13;0.93;;;13.40;67.30;;;;;;5027653;28;20480;-92
2023/11/05 03:55:17;;;;;;;2.53;0.80;;;13.30;67.70;;;;;;5026481;28;20030;-92
2023/11/05 03:57:46;;;;;;;3.25;1.45;;;13.40;66.10;;;;;;5025875;28;20029;-92
2023/11/05 04:00:13;;;;;;;2.53;0.75;;;13.40;66.40;;;;;;5036373;28;20025;-92
2023/11/05 04:02:39;;;;;;;7.07;1.50;;;13.40;66.60;;;;;;5020551;28;20069;-93
2023/11/05 04:05:08;;;;;;;2.88;0.70;;;13.30;67.80;;;;;;5022471;28;20370;-94
2023/11/05 04:07:33;;;;;;;4.22;0.95;;;13.40;67.20;;;;;;5024831;28;20033;-93
2023/11/05 04:10:05;;;;;;;1.02;0.80;;;13.30;69.20;;;;;;5024818;28;20051;-92
2023/11/05 04:12:36;;;;;;;4.13;1.10;;;13.10;72.10;;;;;;5032836;28;20026;-92
2023/11/05 04:15:06;;;;;;;1.30;0.93;;;13.00;73.40;;;;;;5020037;28;20081;-93
2023/11/05 04:17:38;;;;;;;1.45;0.60;;;12.90;74.00;;;;;;5023719;28;20018;-93
2023/11/05 04:20:05;;;;;;;1.20;0.75;;;12.90;72.20;;;;;;5028771;28;20029;-92
2023/11/05 04:22:35;;;;;;;4.07;1.30;;;12.90;72.90;;;;;;5028795;28;20057;-93
2023/11/05 04:25:01;;;;;;;5.93;1.13;;;13.00;71.50;;;;;;5039979;28;20025;-93
2023/11/05 04:27:29;;;;;;;1.92;0.60;;;13.00;72.60;;;;;;5039975;28;20022;-92
2023/11/05 04:29:55;;;;;;;12.52;0.77;;;12.90;72.10;;;;;;5038412;28;20097;-91
2023/11/05 04:32:23;;;;;;;2.50;1.17;;;12.90;72.20;;;;;;5039348;28;20496;-91
2023/11/05 04:34:49;;;;;;;1.38;0.95;;;12.90;72.70;;;;;;5039005;28;20029;-92
2023/11/05 04:37:18;;;;;;;2.13;0.60;;;12.90;72.70;;;;;;5033803;28;20103;-91
2023/11/05 04:39:43;;;;;;;3.35;0.82;;;12.90;73.40;;;;;;5012891;28;20029;-91
2023/11/05 04:42:11;;;;;;;0.93;0.63;;;12.80;75.30;;;;;;5020333;28;20089;-92
2023/11/05 04:44:37;;;;;;;3.00;0.50;;;12.70;79.10;;;;;;5041189;28;20033;-93
2023/11/05 04:47:06;;;;;;;4.13;0.80;;;12.40;83.60;;;;;;5030399;28;20037;-93
2023/11/05 04:49:32;;;;;;;2.03;0.88;;;12.20;84.00;;;;;;5025639;28;20022;-92
2023/11/05 04:51:58;;;;;;;2.60;1.08;;;12.10;86.40;;;;;;5028353;28;20022;-93
2023/11/05 04:54:24;;;;;;;2.78;1.17;;;11.90;88.80;;;;;;5031226;28;20022;-93
2023/11/05 04:56:49;;;;;;;1.38;1.15;;;11.90;88.40;;;;;;5032929;28;20060;-93
2023/11/05 04:59:15;;;;;;;2.88;0.80;;;12.00;85.40;;;;;;5042700;28;20030;-93
2023/11/05 05:01:41;;;;;;;2.60;1.00;;;12.00;86.80;;;;;;5041594;28;20036;-93
2023/11/05 05:04:08;;;;;;;1.10;0.90;;;12.00;84.70;;;;;;5041897;28;20030;-93
2023/11/05 05:06:33;;;;;;;1.75;0.95;;;12.10;84.80;;;;;;5021187;28;20042;-94
2023/11/05 05:08:59;;;;;;;5.07;1.13;;;12.10;83.20;;;;;;5028288;28;20049;-93
2023/11/05 05:11:25;;;;;;;2.88;1.05;;;12.20;84.70;;;;;;5038590;28;20044;-93
2023/11/05 05:13:51;;;;;;;1.83;0.90;;;12.10;87.60;;;;;;5026060;28;20056;-92
2023/11/05 05:16:21;;;;;;;2.35;0.85;;;12.00;88.10;;;;;;5029219;28;20384;-95
2023/11/05 05:18:49;;;;;;;2.50;0.95;;;12.00;86.00;;;;;;5019425;28;20116;-92
2023/11/05 05:21:18;;;;;;;1.50;0.80;;;12.00;86.20;;;;;;5028225;28;20518;-93
2023/11/05 05:23:44;;;;;;;2.70;1.00;;;12.10;86.10;;;;;;5021790;28;20018;-93
2023/11/05 05:26:09;;;;;;;1.70;1.00;;;12.00;86.10;;;;;;5020914;28;20074;-93
2023/11/05 05:28:38;;;;;;;3.75;0.90;;;12.00;88.50;;;;;;5008495;28;20092;-94
2023/11/05 05:31:04;;;;;;;4.00;1.13;;;11.90;89.10;;;;;;5019701;28;20021;-91
2023/11/05 05:33:29;;;;;;;1.98;0.60;;;11.80;91.80;;;;;;5013710;28;20057;-91
2023/11/05 05:35:58;;;;;;;1.63;0.90;;;11.70;92.30;;;;;;5020116;28;20148;-92
2023/11/05 05:38:23;;;;;;;0.80;0.80;;;11.60;94.80;;;;;;5024909;28;20052;-90
2023/11/05 05:40:49;;;;;;;0.85;0.70;;;11.50;94.00;;;;;;5037352;28;20041;-91
2023/11/05 05:43:15;;;;;;;1.35;1.10;;;11.50;94.20;;;;;;5018170;28;20704;-91
2023/11/05 05:45:41;;;;;;;1.35;1.20;;;11.40;96.00;;;;;;5035606;28;20032;-91
2023/11/05 05:48:06;;;;;;;3.63;1.05;;;11.40;97.30;;;;;;5037500;28;20089;-92
2023/11/05 05:50:32;;;;;;;1.75;0.73;;;11.30;96.70;;;;;;5014748;28;20069;-92
2023/11/05 05:52:58;;;;;;;2.20;0.93;;;11.30;95.70;;;;;;5039246;28;20032;-92
2023/11/05 05:55:24;;;;;;;2.58;1.02;;;11.30;96.80;;;;;;5033011;28;20044;-93
2023/11/05 05:57:50;;;;;;;0.73;0.73;;;11.30;95.20;;;;;;5028999;28;20017;-93
2023/11/05 06:00:16;;;;;;;1.15;1.05;;;11.40;94.80;;;;;;5022751;28;20032;-92
2023/11/05 06:02:42;;;;;;;2.03;1.42;;;11.40;91.60;;;;;;5042154;28;20029;-93
2023/11/05 06:05:08;;;;;;;2.03;0.73;;;11.50;94.30;;;;;;5026477;28;20071;-92
2023/11/05 06:07:43;;;;;;;0.93;0.63;;;11.40;93.70;;;;;;5024185;28;20037;-91
2023/11/05 06:10:09;;;;;;;1.05;0.60;;;11.50;91.80;;;;;;5040827;28;20250;-93
2023/11/05 06:12:35;;;;;;;1.98;1.20;;;11.40;94.30;;;;;;5042148;28;20033;-90
2023/11/05 06:15:02;;;;;;;1.63;0.95;;;11.40;95.20;;;;;;5028891;28;20069;-89
2023/11/05 06:17:28;;;;;;;1.05;0.95;;;11.40;95.10;;;;;;5042415;28;20486;-90
2023/11/05 06:19:54;;;;;;;2.42;0.93;;;11.30;97.50;;;;;;5039169;28;20025;-91
2023/11/05 06:22:21;;;;;;;3.00;1.05;;;11.20;98.20;;;;;;5042336;28;20032;-91
2023/11/05 06:24:46;;;;;;;2.55;0.70;;;11.10;99.50;;;;;;5039813;28;20116;-90
2023/11/05 06:27:12;;;;;;;1.23;1.05;;;11.10;99.90;;;;;;5038803;28;20146;-91
2023/11/05 06:29:37;;;;;;;0.85;0.82;;;10.90;99.90;;;;;;5027478;28;20049;-90
2023/11/05 06:32:04;;;;;;;1.75;0.82;;;10.90;99.90;;;;;;5033877;28;20108;-89
2023/11/05 06:34:29;;;;;;;1.23;1.00;;;10.90;99.40;;;;;;5034938;28;20727;-92
2023/11/05 06:37:02;;;;;;;1.42;1.20;;;10.90;99.90;;;;;;5040010;28;20030;-90
2023/11/05 06:39:31;;;;;;;1.50;1.40;;;10.90;99.90;;;;;;5032070;28;20083;-91
2023/11/05 06:41:57;;;;;;;1.02;1.00;;;10.90;99.90;;;;;;5019967;28;20022;-90
2023/11/05 06:44:23;;;;;;;1.23;1.13;;;10.80;99.90;;;;;;5021891;28;20826;-91
2023/11/05 06:46:49;;;;;;;1.55;1.50;;;10.80;99.90;;;;;;5017935;28;20033;-91
2023/11/05 06:49:15;;;;;;;2.05;1.50;;;10.80;99.90;;;;;;5033962;28;20038;-91
2023/11/05 06:51:41;;;;;;;1.55;1.30;;;10.80;99.90;;;;;;5036257;28;20029;-91
2023/11/05 06:54:07;;;;;;;2.40;0.95;;;10.70;99.90;;;;;;5035595;28;20022;-91
2023/11/05 06:56:34;;;;;;;1.55;1.33;;;10.60;99.90;;;;;;5033205;28;20048;-91
2023/11/05 06:59:00;;;;;;;1.23;1.13;;;10.60;99.90;;;;;;5039932;28;20031;-91
2023/11/05 07:01:25;;;;;;;1.20;1.02;;;10.60;99.90;;;;;;5028543;28;20108;-90
2023/11/05 07:03:51;;;;;;;0.90;0.80;;;10.60;99.90;;;;;;5025986;28;20026;-90
2023/11/05 07:06:19;;;;;;;1.65;1.55;;;10.50;99.90;;;;;;5021434;28;20480;-93
2023/11/05 07:08:45;;;;;;;1.13;0.70;;;10.60;99.90;;;;;;5019469;28;20036;-92
2023/11/05 07:11:11;;;;;;;2.72;1.08;;;10.60;99.90;;;;;;5025413;28;20025;-93
2023/11/05 07:13:37;;;;;;;1.77;1.00;;;10.60;99.90;;;;;;5041808;23;20056;-93
2023/11/05 07:16:03;;;;;;;1.17;1.08;;;10.70;99.90;;;;;;5000740;28;20093;-91
2023/11/05 07:18:29;;;;;;;1.52;0.85;;;10.70;99.90;;;;;;5015835;28;20061;-94
2023/11/05 07:20:54;;;;;;;1.80;0.95;;;10.60;99.90;;;;;;5017781;28;20138;-94
2023/11/05 07:23:20;;;;;;;2.47;2.38;;;10.70;99.90;;;;;;5011302;28;20618;-92
2023/11/05 07:25:51;;;;;;;0.70;0.60;;;10.80;99.90;;;;;;5017220;28;20022;-94
2023/11/05 07:28:17;;;;;;;0.95;0.95;;;10.80;99.90;;;;;;5018791;28;20034;-92
2023/11/05 07:30:43;;;;;;;0.98;0.98;;;10.90;99.90;;;;;;5019400;28;20033;-95
2023/11/05 07:33:12;;;;;;;1.65;0.90;;;11.10;99.90;;;;;;5016298;28;20492;-93
2023/11/05 07:35:41;;;;;;;1.48;0.93;;;11.10;99.90;;;;;;5019928;28;20026;-95
2023/11/05 07:38:08;;;;;;;1.70;1.60;;;11.20;99.50;;;;;;5021253;28;20018;-93
2023/11/05 07:40:41;;;;;;;2.00;0.98;;;11.20;99.90;;;;;;5020769;28;20068;-93
2023/11/05 07:43:10;;;;;;;1.15;1.02;;;11.20;99.90;;;;;;5001928;28;20180;-93
2023/11/05 07:45:35;;;;;;;0.93;0.90;;;11.20;99.90;;;;;;5020061;28;20508;-94
2023/11/05 07:48:05;;;;;;;1.25;1.15;;;11.10;99.90;;;;;;5013208;28;20096;-93
2023/11/05 07:50:30;;;;;;;0.60;0.60;;;11.10;99.90;;;;;;5017056;28;20053;-92
2023/11/05 07:52:56;;;;;;;1.05;1.00;;;11.00;99.90;;;;;;5018479;28;20029;-95
2023/11/05 07:55:24;;;;;;;1.90;1.00;;;10.90;99.90;;;;;;5017618;28;20018;-91
2023/11/05 07:57:50;;;;;;;;;;;10.80;99.90;;;;;;5016774;28;20025;-93
2023/11/05 08:00:19;;;;;;;1.60;1.08;;;10.80;99.90;;;;;;5014269;28;19913;-93
2023/11/05 08:02:47;;;;;;;1.88;0.70;;;10.70;99.90;;;;;;5014753;28;20049;-92
2023/11/05 08:05:13;;;;;;;1.05;0.80;;;10.70;99.90;;;;;;5011063;28;20029;-94
2023/11/05 08:07:39;;;;;;;3.88;1.17;;;10.70;99.90;;;;;;5010490;28;20109;-95
2023/11/05 08:10:08;;;;;;;1.00;0.85;;;10.70;99.90;;;;;;5009898;28;20062;-93
2023/11/05 08:12:35;;;;;;;1.27;1.08;;;10.70;99.90;;;;;;5012707;28;20126;-93
2023/11/05 08:15:09;;;;;;;2.50;0.90;;;10.80;99.90;;;;;;5010035;28;20037;-93
2023/11/05 08:17:36;;;;;;;3.78;1.52;;;10.90;99.90;;;;;;5013901;28;20034;-94
2023/11/05 08:20:02;;;;;;;0.93;0.82;;;11.00;99.90;;;;;;5021235;28;20084;-90
2023/11/05 08:22:28;;;;;;;2.08;0.80;;;11.00;99.90;;;;;;5017110;28;20017;-93
2023/11/05 08:24:54;;;;;;;1.30;0.95;;;11.00;99.90;;;;;;5016619;28;20049;-94
2023/11/05 08:27:20;;;;;;;1.55;0.80;;;11.00;99.90;;;;;;5017711;28;20037;-93
2023/11/05 08:29:48;;;;;;;1.02;0.93;;;11.10;99.90;;;;;;5018429;28;20033;-94
2023/11/05 08:32:17;;;;;;;2.55;1.10;;;11.20;99.90;;;;;;5017907;28;20022;-91
2023/11/05 08:34:43;;;;;;;0.88;0.88;;;11.30;99.40;;;;;;5017958;28;20030;-92
2023/11/05 08:37:08;;;;;;;0.75;0.60;;;11.30;98.00;;;;;;5017882;28;20095;-92
2023/11/05 08:39:34;;;;;;;0.85;0.77;;;11.40;99.70;;;;;;5016360;28;20026;-94
2023/11/05 08:42:00;;;;;;;1.67;0.60;;;11.40;98.40;;;;;;5016285;28;20108;-92
2023/11/05 08:44:26;;;;;;;0.77;0.73;;;11.50;96.80;;;;;;5016914;28;20018;-92
2023/11/05 08:46:51;;;;;;;0.63;0.60;;;11.60;96.50;;;;;;5018469;28;20026;-94
2023/11/05 08:49:18;;;;;;;2.17;1.13;;;11.60;96.50;;;;;;5013873;28;20022;-92
2023/11/05 08:51:45;;;;;;;1.48;0.70;;;11.70;93.80;;;;;;5010305;28;20032;-93
2023/11/05 08:54:11;;;;;;;2.08;0.93;;;11.70;94.50;;;;;;5012637;28;20153;-92
2023/11/05 08:56:38;;;;;;;1.00;1.00;;;11.70;95.60;;;;;;5008445;28;20504;-93
2023/11/05 08:59:04;;;;;;;2.15;0.77;;;11.70;96.30;;;;;;5008292;28;20442;-93
2023/11/05 09:01:31;;;;;;;1.38;1.38;;;11.80;95.10;;;;;;5016649;28;20049;-93
2023/11/05 09:03:57;;;;;;;1.30;0.85;;;11.70;96.70;;;;;;5016556;28;20042;-92
2023/11/05 09:06:24;;;;;;;1.05;0.95;;;11.60;98.70;;;;;;5015979;28;20033;-91
2023/11/05 09:08:53;;;;;;;2.50;0.70;;;11.50;99.70;;;;;;5022164;28;20044;-93
2023/11/05 09:11:18;;;;;;;0.93;0.68;;;11.50;99.90;;;;;;5021128;28;20022;-92
2023/11/05 09:13:45;;;;;;;1.17;0.88;;;11.50;99.60;;;;;;5016536;28;20041;-94
2023/11/05 09:16:23;;;;;;;1.55;0.93;;;11.50;99.90;;;;;;5010075;28;20094;-94
2023/11/05 09:18:48;;;;;;;1.27;0.77;;;11.40;99.90;;;;;;5015497;28;20033;-93
2023/11/05 09:21:14;;;;;;;1.35;0.70;;;11.50;98.80;;;;;;5012786;28;20030;-93
2023/11/05 09:24:00;;;;;;;0.70;0.70;;;11.60;97.90;;;;;;5015746;28;20018;-94
2023/11/05 09:26:25;;;;;;;2.00;1.17;;;11.70;96.00;;;;;;5021066;28;20030;-92
2023/11/05 09:28:54;;;;;;;10.25;1.40;;;11.70;97.30;;;;;;5016588;28;20029;-93
2023/11/05 09:31:21;;;;;;;2.20;2.10;;;11.70;97.00;;;;;;5018613;28;20029;-94
2023/11/05 09:33:46;;;;;;;1.77;1.33;;;11.80;98.20;;;;;;5016201;28;20022;-93
2023/11/05 09:36:12;;;;;;;1.27;1.17;;;11.70;98.10;;;;;;5022580;28;20485;-94
2023/11/05 09:38:38;;;;;;;1.20;1.08;;;11.70;98.70;;;;;;5022385;28;20085;-93
2023/11/05 09:41:04;;;;;;;2.28;1.00;;;11.70;98.80;;;;;;5021036;28;20042;-93
2023/11/05 09:43:35;;;;;;;0.88;0.80;;;11.70;97.40;;;;;;5016683;28;20034;-94
2023/11/05 09:46:07;;;;;;;1.58;0.80;;;11.70;98.50;;;;;;5013832;28;20056;-95
2023/11/05 09:48:35;;;;;;;2.42;0.73;;;11.70;98.10;;;;;;5011197;28;20053;-93
2023/11/05 09:51:01;;;;;;;1.77;0.80;;;11.70;97.70;;;;;;5016351;28;20122;-94
2023/11/05 09:53:29;;;;;;;1.90;0.90;;;11.50;98.40;;;;;;5016461;28;20025;-94
2023/11/05 09:56:03;;;;;;;1.95;0.80;;;11.50;99.90;;;;;;5016378;28;20018;-94
2023/11/05 09:58:29;;;;;;;;;;;11.40;99.90;;;;;;5015954;28;20026;-94
2023/11/05 10:00:58;;;;;;;1.23;0.82;;;11.30;99.90;;;;;;5010045;28;20368;-94
2023/11/05 10:03:26;;;;;;;2.15;1.15;;;11.30;99.90;;;;;;5013065;28;20540;-93
2023/11/05 10:05:55;;;;;;;2.58;0.98;;;11.10;99.90;;;;;;5008259;28;20069;-93
2023/11/05 10:08:23;;;;;;;1.73;1.17;;;11.10;99.90;;;;;;5008479;28;20127;-94
2023/11/05 10:10:49;;;;;;;;;;;11.10;99.90;;;;;;5006914;28;20028;-93
2023/11/05 10:13:16;;;;;;;0.95;0.90;;;11.20;99.90;;;;;;5005969;28;19933;-93
2023/11/05 10:15:42;;;;;;;1.00;0.73;;;11.30;99.90;;;;;;5017900;28;20068;-92
2023/11/05 10:18:17;;;;;;;2.55;1.35;;;11.20;99.90;;;;;;5008445;28;20060;-93
2023/11/05 10:20:51;;;;;;;1.42;0.77;;;11.30;99.90;;;;;;5013744;28;20038;-93
2023/11/05 10:23:17;;;;;;;1.88;1.10;;;11.30;99.90;;;;;;5020821;28;20033;-94
2023/11/05 10:25:50;;;;;;;1.83;1.25;;;11.20;99.90;;;;;;5017638;28;20060;-93
2023/11/05 10:28:18;;;;;;;1.70;0.65;;;11.30;99.90;;;;;;5018694;28;20504;-93
2023/11/05 10:30:46;;;;;;;1.45;1.17;;;11.30;99.90;;;;;;5018784;28;20018;-92
2023/11/05 10:33:13;;;;;;;2.03;1.15;;;11.20;99.90;;;;;;5012083;28;20026;-94
2023/11/05 10:35:40;;;;;;;2.22;1.08;;;11.10;99.90;;;;;;5022221;28;20026;-94
2023/11/05 10:38:08;;;;;;;2.53;1.13;;;11.00;99.90;;;;;;5020877;28;20384;-93
2023/11/05 10:40:37;;;;;;;2.33;0.80;;;11.00;99.90;;;;;;5026663;28;20033;-93
2023/11/05 10:43:04;;;;;;;1.75;0.77;;;10.90;99.90;;;;;;5020072;28;20033;-93
2023/11/05 10:45:34;;;;;;;1.05;0.60;;;11.00;99.90;;;;;;5009654;28;20141;-93
2023/11/05 10:48:05;;;;;;;1.60;0.90;;;11.00;99.90;;;;;;5014686;28;20038;-93
2023/11/05 10:50:33;;;;;;;0.95;0.75;;;11.10;99.90;;;;;;5010109;28;20562;-92
2023/11/05 10:53:03;;;;;;;1.42;0.90;;;11.10;99.90;;;;;;5011736;28;20032;-93
2023/11/05 10:55:33;;;;;;;0.95;0.82;;;11.10;99.90;;;;;;5012512;28;20080;-93
2023/11/05 10:58:00;;;;;;;2.28;1.40;;;11.10;99.90;;;;;;5006876;28;20030;-94
2023/11/05 11:00:25;;;;;;;3.60;0.93;;;11.10;99.90;;;;;;5012963;28;20029;-93
2023/11/05 11:02:53;;;;;;;2.78;0.90;;;11.10;99.90;;;;;;5012655;28;20041;-94
2023/11/05 11:05:41;;;;;;;2.75;1.08;;;11.20;99.90;;;;;;5012516;28;20073;-93
2023/11/05 11:08:15;;;;;;;0.73;0.73;;;11.20;99.90;;;;;;5014372;28;20041;-93
2023/11/05 11:10:43;;;;;;;1.63;0.80;;;11.20;99.90;;;;;;5018124;28;20026;-94
2023/11/05 11:13:17;;;;;;;1.60;0.90;;;11.20;99.90;;;;;;5009811;28;20023;-95
2023/11/05 11:15:52;;;;;;;1.83;1.00;;;11.20;99.90;;;;;;5014974;28;20044;-95
2023/11/05 11:18:20;;;;;;;0.80;0.80;;;11.30;99.90;;;;;;5007157;28;20023;-93
2023/11/05 11:20:52;;;;;;;1.30;1.00;;;11.30;99.90;;;;;;5011467;28;20034;-93
2023/11/05 11:23:21;;;;;;;1.63;1.52;;;11.40;99.90;;;;;;5011384;28;20037;-93
2023/11/05 11:26:01;;;;;;;3.67;1.50;;;11.50;99.90;;;;;;5010358;28;20117;-93
2023/11/05 11:28:27;;;;;;;;;;;11.50;99.90;;;;;;5014133;28;20029;-93
2023/11/05 11:30:53;;;;;;;2.50;0.93;;;11.50;99.90;;;;;;5007215;28;19968;-93
2023/11/05 11:33:21;;;;;;;2.05;0.82;;;11.50;99.90;;;;;;5018413;28;20438;-92
2023/11/05 11:35:46;;;;;;;1.27;1.17;;;11.60;99.90;;;;;;5012268;28;20020;-93
2023/11/05 11:38:13;;;;;;;1.27;1.23;;;11.70;99.90;;;;;;5009070;28;20026;-93
2023/11/05 11:40:39;;;;;;;1.15;1.05;;;11.70;99.90;;;;;;5012727;28;20022;-93
2023/11/05 11:43:08;;;;;;;2.03;0.93;;;11.70;99.90;;;;;;5017610;28;20050;-94
2023/11/05 11:45:34;;;;;;;1.05;0.95;;;11.70;99.90;;;;;;5016827;28;20029;-94
2023/11/05 11:48:07;;;;;;;2.75;0.80;;;11.70;99.90;;;;;;5013621;28;20034;-94
2023/11/05 11:50:32;;;;;;;1.40;1.02;;;11.80;99.90;;;;;;5014598;28;20033;-93
2023/11/05 11:52:58;;;;;;;1.88;1.77;;;12.00;99.90;;;;;;5014037;28;20488;-94
2023/11/05 11:55:26;;;;;;;1.02;0.93;;;12.10;99.90;;;;;;5014309;28;20049;-94
2023/11/05 11:57:52;;;;;;;0.70;0.70;;;12.20;95.90;;;;;;5006652;28;20019;-94
2023/11/05 12:00:20;;;;;;;2.03;1.75;;;12.30;94.40;;;;;;5017218;28;20265;-94
2023/11/05 12:02:53;;;;;;;1.08;0.93;;;12.40;91.50;;;;;;5015699;28;20085;-94
2023/11/05 12:05:26;;;;;;;1.60;0.68;;;12.40;94.00;;;;;;5016805;28;20451;-92
2023/11/05 12:07:57;;;;;;;0.68;0.68;;;12.50;92.90;;;;;;5012107;28;20089;-92
2023/11/05 12:10:23;;;;;;;1.48;0.98;;;12.40;91.60;;;;;;5012743;28;20026;-91
2023/11/05 12:12:51;;;;;;;1.52;0.90;;;12.40;92.90;;;;;;5014002;28;20033;-92
2023/11/05 12:15:20;;;;;;;2.42;1.02;;;12.50;90.70;;;;;;5035103;28;20103;-94
2023/11/05 12:17:49;;;;;;;0.73;0.55;;;12.50;91.60;;;;;;5006606;28;20014;-94
2023/11/05 12:20:15;;;;;;;1.75;1.02;;;12.50;91.00;;;;;;5004282;28;20082;-93
2023/11/05 12:22:42;;;;;;;1.33;1.23;;;12.50;90.00;;;;;;5013328;28;20057;-93
2023/11/05 12:25:10;;;;;;;0.90;0.88;;;12.50;90.50;;;;;;5012317;28;20035;-91
2023/11/05 12:27:46;;;;;;;1.00;0.60;;;12.50;88.70;;;;;;5011337;28;20053;-92
2023/11/05 12:30:21;;;;;;;0.65;0.65;;;12.50;89.40;;;;;;5006491;28;20056;-92
2023/11/05 12:32:52;;;;;;;1.02;0.75;;;12.60;89.20;;;;;;5016946;28;20014;-92
2023/11/05 12:35:18;;;;;;;0.85;0.85;;;12.60;90.30;;;;;;5015737;28;20053;-93
2023/11/05 12:37:44;;;;;;;1.75;1.15;;;12.60;90.20;;;;;;5009554;28;20504;-93
2023/11/05 12:40:10;;;;;;;2.28;0.80;;;13.00;86.10;;;;;;5006536;28;20440;-93
2023/11/05 12:42:40;;;;;;;1.13;0.68;;;13.40;85.40;;;;;;5010889;28;20037;-92
2023/11/05 12:45:08;;;;;;;12.13;1.75;;;14.30;82.10;;;;;;5009504;28;20102;-90
2023/11/05 12:47:34;;;;;;;1.58;0.60;;;14.70;77.80;;;;;;5013268;28;20044;-93
2023/11/05 12:49:59;;;;;;;3.53;0.70;;;14.50;76.70;;;;;;5013558;28;20108;-92
2023/11/05 12:52:25;;;;;;;0.77;0.65;;;14.50;78.60;;;;;;5011145;28;20168;-92